Time;durP1;ratioP1;P1;durP2;ratioP2;P2;SDS_P1;SDS_P2;PMS_P1;PMS_P2;Temp;Humidity;BMP_temperature;BMP_pressure;BME280_temperature;BME280_humidity;BME280_pressure;Samples;Min_cycle;Max_cycle;Signal;HPM_P1;HPM_P2
2023/08/25 00:01:16;;;;;;;9.70;8.80;;;;;;;;;;4999479;28;20183;-80
2023/08/25 00:03:42;;;;;;;8.77;7.97;;;;;;;;;;4983872;28;20711;-80
2023/08/25 00:06:08;;;;;;;9.90;8.93;;;;;;;;;;4982577;28;20489;-80
2023/08/25 00:08:35;;;;;;;9.43;8.33;;;;;;;;;;4996230;28;20190;-80
2023/08/25 00:11:01;;;;;;;8.70;7.83;;;;;;;;;;4981359;28;20183;-81
2023/08/25 00:13:27;;;;;;;8.07;7.20;;;;;;;;;;4983289;28;20224;-80
2023/08/25 00:15:54;;;;;;;7.70;6.60;;;;;;;;;;4979495;28;20185;-80
2023/08/25 00:18:20;;;;;;;7.20;6.60;;;;;;;;;;4976698;28;20246;-80
2023/08/25 00:20:48;;;;;;;9.90;6.70;;;;;;;;;;4978943;28;20725;-80
2023/08/25 00:23:15;;;;;;;7.50;6.73;;;;;;;;;;4975933;28;20286;-80
2023/08/25 00:25:44;;;;;;;7.67;6.40;;;;;;;;;;4982448;28;20671;-80
2023/08/25 00:28:11;;;;;;;7.77;6.37;;;;;;;;;;4994496;28;20227;-80
2023/08/25 00:30:37;;;;;;;8.10;6.80;;;;;;;;;;4979064;28;20264;-80
2023/08/25 00:33:03;;;;;;;6.87;6.27;;;;;;;;;;4979884;28;20814;-81
2023/08/25 00:35:29;;;;;;;6.93;6.23;;;;;;;;;;4979422;28;20196;-81
2023/08/25 00:37:55;;;;;;;6.90;6.20;;;;;;;;;;4990100;28;20187;-80
2023/08/25 00:40:22;;;;;;;7.87;6.63;;;;;;;;;;4977462;28;20188;-80
2023/08/25 00:42:48;;;;;;;7.13;6.53;;;;;;;;;;4977995;28;20561;-82
2023/08/25 00:45:14;;;;;;;7.20;6.50;;;;;;;;;;4979746;28;20230;-80
2023/08/25 00:47:40;;;;;;;7.87;7.17;;;;;;;;;;4977609;28;20184;-80
2023/08/25 00:50:08;;;;;;;7.40;6.80;;;;;;;;;;4964729;28;20187;-80
2023/08/25 00:52:35;;;;;;;8.40;7.47;;;;;;;;;;4984550;28;20212;-80
2023/08/25 00:55:03;;;;;;;7.93;7.17;;;;;;;;;;4972735;28;20283;-81
2023/08/25 00:57:31;;;;;;;7.87;7.17;;;;;;;;;;4992763;28;20176;-81
2023/08/25 00:59:58;;;;;;;8.57;7.77;;;;;;;;;;4978892;28;20185;-80
2023/08/25 01:02:24;;;;;;;8.37;7.53;;;;;;;;;;4976790;28;20224;-81
2023/08/25 01:04:50;;;;;;;8.03;7.23;;;;;;;;;;4978531;28;20188;-81
2023/08/25 01:07:17;;;;;;;8.60;7.83;;;;;;;;;;4974469;28;20188;-81
2023/08/25 01:09:43;;;;;;;8.23;7.43;;;;;;;;;;4989916;28;20195;-81
2023/08/25 01:12:13;;;;;;;9.53;7.23;;;;;;;;;;4973397;28;20251;-81
2023/08/25 01:14:40;;;;;;;8.63;7.73;;;;;;;;;;4974560;28;20199;-81
2023/08/25 01:17:22;;;;;;;7.63;6.90;;;;;;;;;;4972181;28;20283;-81
2023/08/25 01:19:48;;;;;;;7.43;6.73;;;;;;;;;;4980592;28;20546;-81
2023/08/25 01:22:17;;;;;;;8.37;7.47;;;;;;;;;;4978888;28;20723;-81
2023/08/25 01:24:48;;;;;;;7.80;7.03;;;;;;;;;;5039940;22;20264;-74
2023/08/25 01:27:15;;;;;;;9.70;8.20;;;;;;;;;;4995827;28;20544;-74
2023/08/25 01:29:43;;;;;;;8.27;7.43;;;;;;;;;;5028565;28;20716;-74
2023/08/25 01:32:09;;;;;;;8.67;7.87;;;;;;;;;;5029506;28;20230;-76
2023/08/25 01:34:36;;;;;;;7.57;6.73;;;;;;;;;;5029432;28;20297;-77
2023/08/25 01:37:14;;;;;;;8.27;6.93;;;;;;;;;;5030420;28;20178;-77
2023/08/25 01:39:41;;;;;;;8.07;6.83;;;;;;;;;;5030574;28;20166;-76
2023/08/25 01:42:07;;;;;;;8.00;7.30;;;;;;;;;;5028553;28;20210;-76
2023/08/25 01:44:35;;;;;;;7.17;6.50;;;;;;;;;;5029276;28;20659;-76
2023/08/25 01:47:02;;;;;;;7.80;7.00;;;;;;;;;;5030170;28;20190;-76
2023/08/25 01:49:30;;;;;;;8.10;7.30;;;;;;;;;;5012897;28;20657;-76
2023/08/25 01:51:56;;;;;;;8.00;7.30;;;;;;;;;;5030067;28;20182;-77
2023/08/25 01:54:23;;;;;;;9.20;7.60;;;;;;;;;;5028800;28;20181;-76
2023/08/25 01:56:49;;;;;;;8.33;7.50;;;;;;;;;;5030077;28;20266;-77
2023/08/25 01:59:16;;;;;;;7.70;6.90;;;;;;;;;;5012529;28;20214;-76
2023/08/25 02:01:42;;;;;;;7.43;6.73;;;;;;;;;;5028893;28;20171;-76
2023/08/25 02:04:08;;;;;;;8.20;7.30;;;;;;;;;;5012420;28;20701;-76
2023/08/25 02:06:35;;;;;;;7.87;6.70;;;;;;;;;;5029981;28;20178;-76
2023/08/25 02:09:03;;;;;;;7.80;7.00;;;;;;;;;;5028839;28;20188;-76
2023/08/25 02:11:29;;;;;;;7.83;6.77;;;;;;;;;;5028640;28;20171;-76
2023/08/25 02:13:55;;;;;;;7.27;6.57;;;;;;;;;;5029650;28;20224;-76
2023/08/25 02:16:21;;;;;;;8.77;6.77;;;;;;;;;;5028575;28;20185;-76
2023/08/25 02:18:47;;;;;;;7.87;7.17;;;;;;;;;;5028528;28;20281;-77
2023/08/25 02:21:15;;;;;;;8.37;7.53;;;;;;;;;;5029677;28;20179;-76
2023/08/25 02:23:41;;;;;;;7.50;6.80;;;;;;;;;;5029355;28;20253;-76
2023/08/25 02:26:07;;;;;;;8.07;7.10;;;;;;;;;;5028483;28;20190;-76
2023/08/25 02:28:33;;;;;;;7.73;6.60;;;;;;;;;;5029640;28;20175;-76
2023/08/25 02:31:00;;;;;;;9.73;7.07;;;;;;;;;;5011907;28;20179;-76
2023/08/25 02:33:26;;;;;;;7.27;6.63;;;;;;;;;;5028298;28;20706;-76
2023/08/25 02:35:52;;;;;;;6.97;6.40;;;;;;;;;;5028559;28;20260;-76
2023/08/25 02:38:18;;;;;;;7.43;6.73;;;;;;;;;;5028177;28;20186;-76
2023/08/25 02:40:45;;;;;;;8.10;6.70;;;;;;;;;;5028665;28;20292;-76
2023/08/25 02:43:11;;;;;;;7.87;7.07;;;;;;;;;;5029479;28;20619;-76
2023/08/25 02:45:39;;;;;;;9.17;7.57;;;;;;;;;;5028597;28;20250;-77
2023/08/25 02:48:05;;;;;;;8.07;7.30;;;;;;;;;;5028873;28;20183;-77
2023/08/25 02:50:32;;;;;;;7.97;7.23;;;;;;;;;;5028790;28;20560;-76
2023/08/25 02:52:58;;;;;;;9.00;6.97;;;;;;;;;;5029428;28;20218;-77
2023/08/25 02:55:25;;;;;;;8.50;6.83;;;;;;;;;;5033006;28;20220;-76
2023/08/25 02:57:51;;;;;;;9.63;6.23;;;;;;;;;;5032396;28;20242;-76
2023/08/25 03:00:23;;;;;;;7.83;7.13;;;;;;;;;;5032155;28;20175;-76
2023/08/25 03:02:49;;;;;;;6.77;6.20;;;;;;;;;;5015935;28;20564;-76
2023/08/25 03:05:17;;;;;;;8.63;6.80;;;;;;;;;;5015926;28;20186;-76
2023/08/25 03:07:44;;;;;;;8.83;6.53;;;;;;;;;;5032078;28;20304;-76
2023/08/25 03:10:10;;;;;;;7.10;6.30;;;;;;;;;;5015676;28;20218;-76
2023/08/25 03:12:37;;;;;;;9.17;7.10;;;;;;;;;;5031727;28;20218;-77
2023/08/25 03:15:05;;;;;;;7.17;6.53;;;;;;;;;;5031752;28;20181;-76
2023/08/25 03:17:31;;;;;;;7.30;6.00;;;;;;;;;;5031927;28;20178;-76
2023/08/25 03:20:00;;;;;;;6.97;5.93;;;;;;;;;;5031764;28;20170;-75
2023/08/25 03:22:26;;;;;;;6.87;6.27;;;;;;;;;;5031736;28;20202;-76
2023/08/25 03:24:52;;;;;;;7.10;6.23;;;;;;;;;;5031561;28;20225;-76
2023/08/25 03:27:19;;;;;;;7.43;6.20;;;;;;;;;;5015454;28;20186;-77
2023/08/25 03:29:45;;;;;;;7.70;6.30;;;;;;;;;;5031603;28;20186;-76
2023/08/25 03:32:11;;;;;;;6.63;6.03;;;;;;;;;;5031387;28;20210;-74
2023/08/25 03:34:38;;;;;;;6.43;5.87;;;;;;;;;;5030827;28;20179;-74
2023/08/25 03:37:05;;;;;;;6.40;5.80;;;;;;;;;;5014312;28;20179;-74
2023/08/25 03:39:32;;;;;;;7.50;5.83;;;;;;;;;;5030737;28;20282;-74
2023/08/25 03:41:58;;;;;;;6.30;5.80;;;;;;;;;;5014195;28;20190;-74
2023/08/25 03:44:24;;;;;;;6.43;5.83;;;;;;;;;;5030758;28;20170;-74
2023/08/25 03:46:50;;;;;;;7.57;5.87;;;;;;;;;;5031700;28;20175;-74
2023/08/25 03:49:17;;;;;;;6.10;5.60;;;;;;;;;;5030606;28;20187;-74
2023/08/25 03:51:43;;;;;;;6.87;5.77;;;;;;;;;;5030500;28;20214;-74
2023/08/25 03:54:11;;;;;;;7.83;5.60;;;;;;;;;;5030365;28;20218;-74
2023/08/25 03:56:38;;;;;;;7.00;5.70;;;;;;;;;;5031598;28;20502;-74
2023/08/25 03:59:04;;;;;;;5.67;5.10;;;;;;;;;;5014107;28;20722;-75
2023/08/25 04:01:30;;;;;;;7.60;5.93;;;;;;;;;;5031421;28;20179;-75
2023/08/25 04:03:57;;;;;;;6.17;5.57;;;;;;;;;;5030216;28;20602;-74
2023/08/25 04:06:23;;;;;;;5.47;4.97;;;;;;;;;;5029291;28;20691;-77
2023/08/25 04:08:49;;;;;;;9.53;5.53;;;;;;;;;;5014465;28;20409;-77
2023/08/25 04:11:16;;;;;;;6.03;5.13;;;;;;;;;;5031321;28;20654;-77
2023/08/25 04:13:44;;;;;;;6.57;5.33;;;;;;;;;;5030093;28;20301;-75
2023/08/25 04:16:10;;;;;;;5.57;5.03;;;;;;;;;;5013132;28;20182;-75
2023/08/25 04:18:36;;;;;;;8.30;5.77;;;;;;;;;;5030002;28;20646;-75
2023/08/25 04:21:03;;;;;;;6.13;5.43;;;;;;;;;;5012960;28;20174;-75
2023/08/25 04:23:30;;;;;;;8.17;5.47;;;;;;;;;;5029650;28;20724;-75
2023/08/25 04:25:56;;;;;;;6.57;5.97;;;;;;;;;;5029671;28;20261;-75
2023/08/25 04:28:24;;;;;;;6.17;5.60;;;;;;;;;;5031036;28;20182;-75
2023/08/25 04:30:54;;;;;;;6.30;5.80;;;;;;;;;;5013324;28;20217;-75
2023/08/25 04:33:25;;;;;;;5.93;5.33;;;;;;;;;;5029540;28;20266;-75
2023/08/25 04:35:51;;;;;;;8.80;5.63;;;;;;;;;;5029722;28;20237;-75
2023/08/25 04:38:18;;;;;;;6.53;5.80;;;;;;;;;;5029635;28;20167;-75
2023/08/25 04:40:46;;;;;;;7.73;6.30;;;;;;;;;;5016479;28;20226;-73
2023/08/25 04:43:13;;;;;;;10.53;6.00;;;;;;;;;;5016499;28;20206;-72
2023/08/25 04:45:39;;;;;;;6.27;5.67;;;;;;;;;;5028461;28;20273;-76
2023/08/25 04:48:06;;;;;;;8.03;6.00;;;;;;;;;;5029649;28;20187;-75
2023/08/25 04:50:32;;;;;;;6.50;5.90;;;;;;;;;;5013358;28;20270;-74
2023/08/25 04:52:58;;;;;;;8.03;6.17;;;;;;;;;;5025085;28;20248;-75
2023/08/25 04:55:25;;;;;;;7.50;6.73;;;;;;;;;;5030881;28;20179;-75
2023/08/25 04:57:51;;;;;;;7.60;6.90;;;;;;;;;;5029262;28;20182;-75
2023/08/25 05:00:18;;;;;;;9.60;6.30;;;;;;;;;;5028236;28;20224;-74
2023/08/25 05:02:45;;;;;;;7.27;6.27;;;;;;;;;;5029448;28;20206;-78
2023/08/25 05:05:12;;;;;;;6.90;6.30;;;;;;;;;;5013062;28;20560;-75
2023/08/25 05:07:39;;;;;;;6.77;6.07;;;;;;;;;;5029525;28;20265;-77
2023/08/25 05:10:05;;;;;;;8.50;5.10;;;;;;;;;;5031802;28;20677;-84
2023/08/25 05:12:33;;;;;;;6.37;5.17;;;;;;;;;;5009710;28;20301;-77
2023/08/25 05:15:00;;;;;;;6.70;5.10;;;;;;;;;;5009587;28;20320;-76
2023/08/25 05:17:26;;;;;;;6.40;5.10;;;;;;;;;;5005864;28;20195;-75
2023/08/25 05:19:54;;;;;;;5.23;4.07;;;;;;;;;;5008775;28;20192;-75
2023/08/25 05:22:20;;;;;;;7.83;4.30;;;;;;;;;;5025556;28;20203;-75
2023/08/25 05:24:47;;;;;;;9.23;4.60;;;;;;;;;;5008514;28;20195;-75
2023/08/25 05:27:13;;;;;;;6.20;4.60;;;;;;;;;;5025353;28;20194;-75
2023/08/25 05:29:39;;;;;;;7.13;5.00;;;;;;;;;;5025202;28;20179;-75
2023/08/25 05:32:16;;;;;;;7.27;5.00;;;;;;;;;;5025222;28;20222;-75
2023/08/25 05:35:04;;;;;;;6.00;4.77;;;;;;;;;;5025062;28;20168;-75
2023/08/25 05:37:33;;;;;;;7.97;5.40;;;;;;;;;;5008679;28;20177;-75
2023/08/25 05:39:59;;;;;;;9.77;6.50;;;;;;;;;;5026051;28;20179;-80
2023/08/25 05:42:28;;;;;;;7.97;6.70;;;;;;;;;;4992504;28;20229;-75
2023/08/25 05:44:55;;;;;;;9.70;7.20;;;;;;;;;;5025510;28;20306;-75
2023/08/25 05:47:21;;;;;;;7.33;6.63;;;;;;;;;;5010021;28;20238;-76
2023/08/25 05:49:47;;;;;;;8.73;7.00;;;;;;;;;;5009279;28;20286;-76
2023/08/25 05:52:14;;;;;;;8.17;7.33;;;;;;;;;;5025114;28;20206;-76
2023/08/25 05:54:40;;;;;;;9.47;7.03;;;;;;;;;;5009091;28;20190;-75
2023/08/25 05:57:10;;;;;;;9.17;6.60;;;;;;;;;;5008858;28;20266;-75
2023/08/25 05:59:36;;;;;;;8.17;6.47;;;;;;;;;;5025604;28;20206;-75
2023/08/25 06:02:02;;;;;;;7.33;6.07;;;;;;;;;;5008556;28;20201;-75
2023/08/25 06:04:29;;;;;;;7.23;6.27;;;;;;;;;;5009633;28;20176;-75
2023/08/25 06:06:55;;;;;;;7.00;6.30;;;;;;;;;;5008711;28;20171;-75
2023/08/25 06:09:23;;;;;;;8.87;6.87;;;;;;;;;;5009609;28;20175;-75
2023/08/25 06:11:49;;;;;;;8.40;6.90;;;;;;;;;;4992722;28;20216;-75
2023/08/25 06:14:15;;;;;;;10.07;7.07;;;;;;;;;;5008339;28;20297;-75
2023/08/25 06:16:42;;;;;;;10.43;7.03;;;;;;;;;;5008648;28;20298;-75
2023/08/25 06:19:08;;;;;;;9.43;6.77;;;;;;;;;;5009470;28;20179;-75
2023/08/25 06:21:34;;;;;;;10.00;6.93;;;;;;;;;;5008266;28;20648;-75
2023/08/25 06:24:01;;;;;;;10.97;8.07;;;;;;;;;;5009389;28;20210;-75
2023/08/25 06:26:27;;;;;;;10.47;6.53;;;;;;;;;;5009338;28;20251;-75
2023/08/25 06:28:55;;;;;;;10.63;6.37;;;;;;;;;;5009861;28;20195;-78
2023/08/25 06:31:21;;;;;;;8.73;5.77;;;;;;;;;;5009393;28;20514;-75
2023/08/25 06:33:47;;;;;;;7.60;5.53;;;;;;;;;;5008039;28;20217;-75
2023/08/25 06:36:13;;;;;;;7.87;4.97;;;;;;;;;;4975680;28;20186;-75
2023/08/25 06:38:40;;;;;;;6.67;4.63;;;;;;;;;;5009431;28;20174;-75
2023/08/25 06:41:06;;;;;;;5.97;4.70;;;;;;;;;;5022521;28;20244;-74
2023/08/25 06:43:32;;;;;;;5.50;4.40;;;;;;;;;;5028966;28;20206;-74
2023/08/25 06:45:58;;;;;;;5.37;4.40;;;;;;;;;;5027937;28;20433;-75
2023/08/25 06:48:25;;;;;;;6.20;4.37;;;;;;;;;;5028807;28;20171;-74
2023/08/25 06:50:51;;;;;;;7.43;4.40;;;;;;;;;;5027842;28;20193;-74
2023/08/25 06:53:17;;;;;;;4.20;3.77;;;;;;;;;;5027463;28;20214;-75
2023/08/25 06:55:43;;;;;;;5.10;4.23;;;;;;;;;;5029103;28;20166;-75
2023/08/25 06:58:09;;;;;;;5.33;3.97;;;;;;;;;;5011262;28;20236;-75
2023/08/25 07:00:35;;;;;;;6.97;4.30;;;;;;;;;;5011150;28;20554;-75
2023/08/25 07:03:03;;;;;;;5.67;3.80;;;;;;;;;;5029196;28;20198;-75
2023/08/25 07:05:29;;;;;;;5.50;4.00;;;;;;;;;;5028011;28;20273;-74
2023/08/25 07:07:55;;;;;;;8.97;4.17;;;;;;;;;;5011940;28;20656;-75
2023/08/25 07:10:22;;;;;;;4.77;4.27;;;;;;;;;;5029415;28;20201;-75
2023/08/25 07:12:48;;;;;;;6.50;4.20;;;;;;;;;;5029245;28;20710;-75
2023/08/25 07:15:14;;;;;;;6.00;4.63;;;;;;;;;;5028289;28;20179;-75
2023/08/25 07:17:41;;;;;;;6.13;4.83;;;;;;;;;;5011171;28;20194;-75
2023/08/25 07:20:08;;;;;;;7.10;4.90;;;;;;;;;;5011295;28;20643;-75
2023/08/25 07:22:34;;;;;;;7.13;4.73;;;;;;;;;;5011052;28;20241;-75
2023/08/25 07:25:01;;;;;;;6.53;4.60;;;;;;;;;;5022882;23;20225;-77
2023/08/25 07:27:27;;;;;;;6.60;4.67;;;;;;;;;;5022231;28;20202;-77
2023/08/25 07:29:53;;;;;;;6.73;4.33;;;;;;;;;;5016815;28;20189;-77
2023/08/25 07:32:20;;;;;;;8.30;4.37;;;;;;;;;;5011500;28;20241;-77
2023/08/25 07:34:46;;;;;;;4.87;3.70;;;;;;;;;;5008447;28;20262;-78
2023/08/25 07:37:12;;;;;;;5.33;3.80;;;;;;;;;;5010115;28;20187;-77
2023/08/25 07:39:40;;;;;;;4.70;4.03;;;;;;;;;;5005301;28;20616;-77
2023/08/25 07:42:06;;;;;;;7.97;3.60;;;;;;;;;;5009846;28;20183;-77
2023/08/25 07:44:32;;;;;;;6.27;3.97;;;;;;;;;;5011264;28;20171;-77
2023/08/25 07:46:58;;;;;;;4.13;3.73;;;;;;;;;;5017339;28;20191;-78
2023/08/25 07:49:24;;;;;;;4.80;3.27;;;;;;;;;;5015293;28;20214;-78
2023/08/25 07:51:50;;;;;;;5.30;3.00;;;;;;;;;;5013823;28;20225;-77
2023/08/25 07:54:16;;;;;;;3.40;3.10;;;;;;;;;;5018640;28;20210;-77
2023/08/25 07:56:43;;;;;;;4.13;3.10;;;;;;;;;;5011085;28;20274;-77
2023/08/25 07:59:10;;;;;;;4.43;3.07;;;;;;;;;;5011803;28;20175;-77
2023/08/25 08:01:36;;;;;;;6.60;3.60;;;;;;;;;;5013570;28;20210;-78
2023/08/25 08:04:03;;;;;;;4.40;3.23;;;;;;;;;;4994739;28;20215;-78
2023/08/25 08:06:29;;;;;;;5.60;3.30;;;;;;;;;;5012406;28;20635;-78
2023/08/25 08:08:56;;;;;;;4.00;3.50;;;;;;;;;;5008816;28;20195;-78
2023/08/25 08:11:22;;;;;;;3.90;3.13;;;;;;;;;;5009242;28;20532;-78
2023/08/25 08:13:48;;;;;;;4.20;3.40;;;;;;;;;;5002881;28;20269;-78
2023/08/25 08:16:14;;;;;;;3.50;3.10;;;;;;;;;;5007409;28;20195;-78
2023/08/25 08:18:40;;;;;;;4.53;3.40;;;;;;;;;;5009235;28;20192;-78
2023/08/25 08:21:07;;;;;;;5.17;3.27;;;;;;;;;;5008886;28;20183;-78
2023/08/25 08:23:33;;;;;;;3.63;3.20;;;;;;;;;;5008159;28;20201;-78
2023/08/25 08:25:59;;;;;;;4.40;3.50;;;;;;;;;;5011130;28;20232;-78
2023/08/25 08:28:25;;;;;;;5.47;3.63;;;;;;;;;;5007472;28;20731;-81
2023/08/25 08:30:52;;;;;;;7.27;3.93;;;;;;;;;;5008537;28;20265;-77
2023/08/25 08:33:18;;;;;;;7.83;3.90;;;;;;;;;;5009055;28;20237;-78
2023/08/25 08:35:44;;;;;;;7.00;4.03;;;;;;;;;;5006998;28;20675;-78
2023/08/25 08:38:10;;;;;;;6.37;4.10;;;;;;;;;;5009633;28;21011;-77
2023/08/25 08:40:36;;;;;;;7.00;4.07;;;;;;;;;;5012060;28;20191;-78
2023/08/25 08:43:03;;;;;;;5.67;3.90;;;;;;;;;;5014160;28;20230;-77
2023/08/25 08:45:34;;;;;;;8.80;3.80;;;;;;;;;;5019092;28;20631;-77
2023/08/25 08:48:03;;;;;;;5.10;3.20;;;;;;;;;;5015958;28;20194;-77
2023/08/25 08:50:30;;;;;;;4.57;3.30;;;;;;;;;;5008139;28;20271;-77
2023/08/25 08:52:57;;;;;;;8.37;3.70;;;;;;;;;;5011593;28;20277;-77
2023/08/25 08:55:24;;;;;;;4.83;3.17;;;;;;;;;;5016907;28;20183;-77
2023/08/25 08:57:50;;;;;;;4.67;3.17;;;;;;;;;;5009235;28;20246;-77
2023/08/25 09:00:20;;;;;;;5.97;3.30;;;;;;;;;;5019070;28;20201;-77
2023/08/25 09:02:50;;;;;;;4.80;3.23;;;;;;;;;;5012384;28;20463;-78
2023/08/25 09:05:21;;;;;;;3.93;3.13;;;;;;;;;;5015958;28;20265;-77
2023/08/25 09:07:48;;;;;;;4.67;2.80;;;;;;;;;;5011335;28;20647;-77
2023/08/25 09:10:15;;;;;;;3.10;2.77;;;;;;;;;;5010938;28;20870;-77
2023/08/25 09:12:41;;;;;;;4.10;2.70;;;;;;;;;;5013408;28;20219;-77
2023/08/25 09:15:08;;;;;;;4.50;2.53;;;;;;;;;;5017355;28;20188;-77
2023/08/25 09:17:35;;;;;;;6.23;2.60;;;;;;;;;;5011573;28;20184;-77
2023/08/25 09:20:05;;;;;;;3.10;2.63;;;;;;;;;;5013149;28;20536;-77
2023/08/25 09:22:31;;;;;;;4.10;3.00;;;;;;;;;;5013822;28;20691;-77
2023/08/25 09:25:01;;;;;;;3.47;2.70;;;;;;;;;;5016693;28;20220;-77
2023/08/25 09:27:27;;;;;;;3.27;2.70;;;;;;;;;;5010444;28;20189;-77
2023/08/25 09:29:59;;;;;;;4.37;3.00;;;;;;;;;;5011755;28;20213;-77
2023/08/25 09:32:27;;;;;;;5.00;2.93;;;;;;;;;;5012680;28;20240;-77
2023/08/25 09:34:54;;;;;;;4.30;2.57;;;;;;;;;;5012292;28;20726;-77
2023/08/25 09:37:20;;;;;;;3.93;2.60;;;;;;;;;;5012274;28;20185;-77
2023/08/25 09:39:46;;;;;;;3.23;2.40;;;;;;;;;;5007352;28;20194;-77
2023/08/25 09:42:12;;;;;;;3.43;2.70;;;;;;;;;;5010833;28;20202;-77
2023/08/25 09:44:39;;;;;;;5.33;2.80;;;;;;;;;;5012220;28;20198;-77
2023/08/25 09:47:08;;;;;;;3.43;2.53;;;;;;;;;;5008279;28;20197;-77
2023/08/25 09:49:38;;;;;;;2.87;2.30;;;;;;;;;;5015024;28;20174;-77
2023/08/25 09:52:06;;;;;;;3.13;2.40;;;;;;;;;;5016994;28;20187;-77
2023/08/25 09:54:33;;;;;;;4.00;2.63;;;;;;;;;;5014011;28;20673;-77
2023/08/25 09:57:00;;;;;;;3.37;2.50;;;;;;;;;;5014468;28;20663;-77
2023/08/25 09:59:27;;;;;;;3.67;2.83;;;;;;;;;;5017313;28;20236;-77
2023/08/25 10:01:54;;;;;;;3.27;2.90;;;;;;;;;;5010433;28;20183;-77
2023/08/25 10:04:21;;;;;;;4.40;2.67;;;;;;;;;;5007070;28;20197;-77
2023/08/25 10:06:48;;;;;;;5.17;2.60;;;;;;;;;;5009666;28;20187;-78
2023/08/25 10:09:15;;;;;;;3.00;2.63;;;;;;;;;;5012099;28;20229;-78
2023/08/25 10:11:42;;;;;;;4.30;2.40;;;;;;;;;;5015294;28;20190;-77
2023/08/25 10:14:10;;;;;;;4.17;2.37;;;;;;;;;;5004405;28;20262;-77
2023/08/25 10:16:40;;;;;;;2.47;2.20;;;;;;;;;;5002395;28;20553;-77
2023/08/25 10:19:10;;;;;;;3.13;2.53;;;;;;;;;;5006489;28;20300;-77
2023/08/25 10:21:38;;;;;;;2.77;2.33;;;;;;;;;;5011010;28;20197;-77
2023/08/25 10:24:04;;;;;;;4.30;2.73;;;;;;;;;;5008004;28;20249;-77
2023/08/25 10:26:31;;;;;;;3.07;2.33;;;;;;;;;;5010062;28;20195;-79
2023/08/25 10:28:57;;;;;;;4.73;2.60;;;;;;;;;;5006677;28;20657;-78
2023/08/25 10:31:25;;;;;;;4.53;2.43;;;;;;;;;;5010828;28;20253;-77
2023/08/25 10:33:53;;;;;;;3.10;2.60;;;;;;;;;;5004821;28;20227;-77
2023/08/25 10:36:20;;;;;;;3.90;2.50;;;;;;;;;;5005968;28;20183;-78
2023/08/25 10:38:47;;;;;;;3.83;2.50;;;;;;;;;;5003792;28;20211;-78
2023/08/25 10:41:14;;;;;;;6.80;2.80;;;;;;;;;;5009764;28;20189;-78
2023/08/25 10:43:41;;;;;;;3.37;2.73;;;;;;;;;;5006865;28;20223;-78
2023/08/25 10:46:12;;;;;;;3.90;2.80;;;;;;;;;;5005347;28;20194;-78
2023/08/25 10:48:38;;;;;;;3.10;2.60;;;;;;;;;;5004691;28;20192;-77
2023/08/25 10:51:33;;;;;;;5.57;2.63;;;;;;;;;;5002012;28;20282;-78
2023/08/25 10:53:59;;;;;;;5.33;2.60;;;;;;;;;;5001055;28;20300;-78
2023/08/25 10:56:26;;;;;;;3.10;2.60;;;;;;;;;;5003912;28;20256;-78
2023/08/25 10:58:58;;;;;;;4.40;2.67;;;;;;;;;;5007263;28;20218;-78
2023/08/25 11:01:34;;;;;;;3.10;2.80;;;;;;;;;;5001774;28;20758;-77
2023/08/25 11:04:06;;;;;;;4.70;2.60;;;;;;;;;;5005109;28;20241;-78
2023/08/25 11:07:08;;;;;;;3.83;2.50;;;;;;;;;;4994619;28;20225;-76
2023/08/25 11:09:35;;;;;;;5.80;2.70;;;;;;;;;;4947780;28;20279;-77
2023/08/25 11:12:03;;;;;;;3.77;2.90;;;;;;;;;;4995855;28;20705;-77
2023/08/25 11:14:34;;;;;;;3.83;2.70;;;;;;;;;;5003593;28;20315;-77
2023/08/25 11:17:07;;;;;;;4.43;2.93;;;;;;;;;;5010310;28;20233;-76
2023/08/25 11:19:37;;;;;;;3.93;2.70;;;;;;;;;;5006968;28;20198;-77
2023/08/25 11:22:05;;;;;;;4.43;2.63;;;;;;;;;;5008271;28;20186;-78
2023/08/25 11:24:32;;;;;;;4.47;2.57;;;;;;;;;;5005022;28;20190;-77
2023/08/25 11:27:09;;;;;;;3.97;2.90;;;;;;;;;;5013643;28;20198;-77
2023/08/25 11:29:35;;;;;;;3.33;2.90;;;;;;;;;;5009737;28;20456;-77
2023/08/25 11:32:02;;;;;;;3.70;2.90;;;;;;;;;;5010571;28;20195;-77
2023/08/25 11:34:35;;;;;;;4.03;2.97;;;;;;;;;;5018411;28;20215;-77
2023/08/25 11:37:01;;;;;;;4.63;2.80;;;;;;;;;;5013447;28;20194;-77
2023/08/25 11:39:27;;;;;;;3.40;2.90;;;;;;;;;;5008772;28;20179;-75
2023/08/25 11:41:54;;;;;;;4.40;2.80;;;;;;;;;;5008836;28;20283;-77
2023/08/25 11:44:20;;;;;;;3.33;3.03;;;;;;;;;;5013195;28;20205;-77
2023/08/25 11:46:46;;;;;;;3.87;3.40;;;;;;;;;;5006126;28;20183;-76
2023/08/25 11:49:12;;;;;;;7.00;2.97;;;;;;;;;;5011437;28;20619;-76
2023/08/25 11:51:39;;;;;;;4.40;3.20;;;;;;;;;;5010242;28;20187;-76
2023/08/25 11:54:06;;;;;;;3.43;3.10;;;;;;;;;;5011040;28;20225;-76
2023/08/25 11:56:32;;;;;;;4.30;3.20;;;;;;;;;;5014822;28;20725;-77
2023/08/25 11:58:58;;;;;;;3.67;3.17;;;;;;;;;;5011534;28;20719;-76
2023/08/25 12:01:31;;;;;;;4.90;3.30;;;;;;;;;;5006920;28;20245;-76
2023/08/25 12:03:58;;;;;;;4.17;3.33;;;;;;;;;;5015219;28;20645;-76
2023/08/25 12:06:25;;;;;;;6.50;3.60;;;;;;;;;;5011524;28;20187;-76
2023/08/25 12:08:51;;;;;;;5.70;3.53;;;;;;;;;;5008222;28;20189;-76
2023/08/25 12:11:17;;;;;;;5.13;3.53;;;;;;;;;;5015865;28;20549;-76
2023/08/25 12:13:44;;;;;;;4.07;3.43;;;;;;;;;;5006815;28;20702;-76
2023/08/25 12:16:13;;;;;;;4.20;3.40;;;;;;;;;;5016285;28;20191;-76
2023/08/25 12:18:41;;;;;;;5.60;3.30;;;;;;;;;;5015330;28;20265;-77
2023/08/25 12:21:08;;;;;;;4.13;3.57;;;;;;;;;;5011426;28;20183;-76
2023/08/25 12:23:41;;;;;;;5.10;4.03;;;;;;;;;;5010384;28;20591;-76
2023/08/25 12:26:14;;;;;;;4.87;3.90;;;;;;;;;;5011869;28;20199;-76
2023/08/25 12:28:42;;;;;;;5.27;3.90;;;;;;;;;;5009981;28;20186;-76
2023/08/25 12:31:08;;;;;;;6.13;3.70;;;;;;;;;;5015239;28;20194;-76
2023/08/25 12:33:35;;;;;;;4.97;4.13;;;;;;;;;;5015005;28;20213;-76
2023/08/25 12:36:01;;;;;;;4.20;3.60;;;;;;;;;;5007988;28;20189;-76
2023/08/25 12:38:27;;;;;;;4.73;4.03;;;;;;;;;;5009816;28;20191;-76
2023/08/25 12:40:54;;;;;;;5.13;3.87;;;;;;;;;;4992434;28;20545;-76
2023/08/25 12:43:20;;;;;;;4.40;4.00;;;;;;;;;;5011346;28;20207;-76
2023/08/25 12:45:47;;;;;;;6.47;3.70;;;;;;;;;;5001771;28;20422;-77
2023/08/25 12:48:14;;;;;;;5.50;3.70;;;;;;;;;;5012429;28;20194;-76
2023/08/25 12:50:40;;;;;;;5.93;4.20;;;;;;;;;;5006056;28;20226;-76
2023/08/25 12:53:06;;;;;;;5.03;4.07;;;;;;;;;;5006585;28;20241;-76
2023/08/25 12:55:33;;;;;;;4.20;3.83;;;;;;;;;;5011314;28;20197;-76
2023/08/25 12:58:00;;;;;;;5.63;4.03;;;;;;;;;;5012575;28;20213;-76
2023/08/25 13:00:27;;;;;;;5.60;3.90;;;;;;;;;;5008164;28;20183;-76
2023/08/25 13:02:54;;;;;;;8.07;4.33;;;;;;;;;;5007182;28;20211;-76
2023/08/25 13:05:20;;;;;;;4.83;3.97;;;;;;;;;;5007724;28;20183;-77
2023/08/25 13:07:46;;;;;;;7.70;4.13;;;;;;;;;;5010695;28;20223;-77
2023/08/25 13:10:12;;;;;;;7.03;3.83;;;;;;;;;;5013011;28;20663;-77
2023/08/25 13:12:38;;;;;;;5.03;3.97;;;;;;;;;;5008773;28;20289;-77
2023/08/25 13:15:08;;;;;;;5.87;4.30;;;;;;;;;;5012270;28;20262;-77
2023/08/25 13:17:34;;;;;;;5.70;4.03;;;;;;;;;;5008720;28;20214;-77
2023/08/25 13:20:01;;;;;;;5.27;4.10;;;;;;;;;;5005456;28;20179;-77
2023/08/25 13:22:27;;;;;;;5.50;3.70;;;;;;;;;;5007184;28;20214;-77
2023/08/25 13:24:53;;;;;;;4.40;3.57;;;;;;;;;;5026582;23;20191;-73
2023/08/25 13:27:19;;;;;;;5.70;3.40;;;;;;;;;;5025843;28;20188;-74
2023/08/25 13:29:45;;;;;;;4.43;3.60;;;;;;;;;;5026782;28;20185;-73
2023/08/25 13:32:12;;;;;;;3.70;3.30;;;;;;;;;;5028158;28;20205;-75
2023/08/25 13:34:38;;;;;;;4.33;3.30;;;;;;;;;;5029426;28;20268;-74
2023/08/25 13:37:05;;;;;;;6.27;3.87;;;;;;;;;;5012595;28;20211;-79
2023/08/25 13:39:33;;;;;;;4.63;3.60;;;;;;;;;;5029161;28;20194;-79
2023/08/25 13:41:59;;;;;;;6.30;3.80;;;;;;;;;;5040533;28;20194;-80
2023/08/25 13:44:25;;;;;;;4.23;3.50;;;;;;;;;;5030667;28;20188;-80
2023/08/25 13:46:51;;;;;;;4.63;3.50;;;;;;;;;;5038859;28;20474;-80
2023/08/25 13:49:17;;;;;;;5.37;3.57;;;;;;;;;;5043065;28;20183;-82
2023/08/25 13:51:44;;;;;;;4.20;3.13;;;;;;;;;;4991469;28;20205;-78
2023/08/25 13:54:10;;;;;;;3.30;3.00;;;;;;;;;;5019472;28;20243;-77
2023/08/25 13:56:36;;;;;;;4.70;3.20;;;;;;;;;;5033995;28;20204;-79
2023/08/25 13:59:03;;;;;;;4.53;3.13;;;;;;;;;;5031640;28;20185;-81
2023/08/25 14:01:29;;;;;;;3.83;3.10;;;;;;;;;;5012221;28;20183;-79
2023/08/25 14:03:55;;;;;;;3.80;3.10;;;;;;;;;;5038935;28;20200;-80
2023/08/25 14:06:21;;;;;;;3.47;3.17;;;;;;;;;;5037293;28;20289;-79
2023/08/25 14:08:47;;;;;;;4.67;3.37;;;;;;;;;;5025631;28;20205;-80
2023/08/25 14:11:14;;;;;;;3.80;3.40;;;;;;;;;;5031976;28;20184;-79
2023/08/25 14:13:40;;;;;;;4.33;3.47;;;;;;;;;;5035997;28;20203;-79
2023/08/25 14:16:06;;;;;;;4.13;3.30;;;;;;;;;;5035602;28;20298;-79
2023/08/25 14:18:32;;;;;;;3.30;3.00;;;;;;;;;;5013240;28;20312;-79
2023/08/25 14:20:59;;;;;;;5.17;3.40;;;;;;;;;;5030605;28;20254;-79
2023/08/25 14:23:25;;;;;;;4.43;3.30;;;;;;;;;;5032791;28;20668;-79
2023/08/25 14:25:51;;;;;;;3.63;3.33;;;;;;;;;;5025796;28;20259;-79
2023/08/25 14:28:17;;;;;;;4.73;3.17;;;;;;;;;;5026974;28;20207;-79
2023/08/25 14:30:43;;;;;;;4.83;3.27;;;;;;;;;;5027729;28;20190;-79
2023/08/25 14:33:10;;;;;;;3.90;3.00;;;;;;;;;;5014336;28;20206;-79
2023/08/25 14:35:39;;;;;;;4.87;3.20;;;;;;;;;;5004807;28;20241;-79
2023/08/25 14:38:05;;;;;;;6.80;3.20;;;;;;;;;;5013766;28;20195;-79
2023/08/25 14:40:32;;;;;;;4.80;3.03;;;;;;;;;;5025068;28;20565;-79
2023/08/25 14:42:58;;;;;;;4.70;3.30;;;;;;;;;;5035925;28;20277;-80